Aeroporto :
LOGIN :

Iscrizione | Disclaimer

   EN    FR    IT 

 










Sommario :    VFR   VFR Marginale   IFR   IFR Intensivo   IFR Molto Intensivo
Visibilità : 
Base nubi : 
>= 8 km
>= 3000ft
5 / 8 km
1000 / 3000 ft
1500m / 5 km
500 / 1000 ft
800 / 1500m
200 / 500 ft
< 800m
< 200 ft
Simboli :   Temporali  Nebbia  Neve Forte  Precipitazioni Forti  Vento > 20 kt
SIGMETs :   Varie  Temporali  Ghiacco  Turbolenza  Onda orograficha  Ceneri Vulcaniche







- Altitudine del aeroporto : 645 ft
- Codice IATA : DLE
- Carte del aeroporto


LFGJ - Dole Tavaux

ULTIMO METAR :
  • 162300Z AUTO 07003KT CAVOK 02/M00 Q1026

METARs OBSOLETI :
  • 162230Z AUTO 07004KT CAVOK 02/00 Q1026
  • 162200Z AUTO 07004KT CAVOK 02/M00 Q1026
  • 162130Z AUTO 07005KT CAVOK 04/01 Q1026
  • 162100Z AUTO 07004KT CAVOK 04/01 Q1026
  • 162030Z AUTO 08005KT CAVOK 04/M00 Q1026

TAF TAF LFGJ
Valido dal 16 a 15 ore il 17 a 00 ore UTC


161400Z 1615/1624 22006KT CAVOK
Nessun NOTAM noto per questo aeroporto.



MetMap, La meteo Aeronautica in un colpo d'occhio ! - Copyright ORBIFLY Dicembre 2007 - Disclaimer

ORBIFLY MET'MAP TEAM :

Programmazione e sviluppo : Alexandra Zaïnal
Concezione e sviluppo : Baudouin d'Aumeries
Co-Programmazione e sviluppo : Marc-Olivier Méhu
Supporto tecnico e logistico : Manuel Goepfert
Aiuto per la traduzione : Arnaldo La Scala

Contatto : metmap@orbifly.com




FONTI E CREDITI :

   NOAA